Terminal Aerodrome Forecast
Issued by NWS Topeka, KS

Home | Current Version | Previous Version | Text Only | Print | Product List | Glossary On
Versions: 1 2 3 4 5 6 7 8 9 10 11 12 13 14 15 16 17 18 19 20 21 22 23 24 25 26 27 28 29 30 31 32 33 34 35 36 37 38 39 40 41 42
000
FTUS43 KTOP 220330 AAA
TAFTOP
TAF AMD
KTOP 220330Z 2204/2224 12015KT P6SM OVC250 WS020/17045KT
     FM220700 14015G20KT P6SM OVC023 WS020/18050KT
     FM220900 15013G20KT 3SM -DZ BR OVC008 WS020/18050KT
     FM221100 15012KT 2SM -DZ BR OVC005 WS020/19045KT
     FM221600 18011KT 4SM -DZ BR OVC006
     FM222100 29015G20KT P6SM OVC013=

USA.gov is the U.S. government's official web portal to all federal, state and local government web resources and services.